Terminal Aerodrome Forecast
Issued by NWS

Home | Current Version | Previous Version | Text Only | Print | Product List | Glossary On
Versions: 1 2 3 4 5 6 7 8 9 10 11 12 13 14 15 16 17
000
FTUS42 KMHX 250533
TAFISO
TAF
KISO 250533Z 2506/2606 17005KT P6SM SCT015
     FM250800 19005KT 3SM BR SCT008 BKN030
     FM251200 21006KT P6SM BKN060
     FM251500 22009KT P6SM VCTS BKN040CB
     FM252000 27011KT P6SM BKN060
      AMD LTD TO CLD VIS AND WIND=

USA.gov is the U.S. government's official web portal to all federal, state and local government web resources and services.